createdAt,value
2023-05-21T00:01:55.868Z,0.40
2023-05-21T00:04:25.602Z,0.32
2023-05-21T00:06:55.806Z,0.50
2023-05-21T00:09:24.140Z,0.45
2023-05-21T00:11:52.123Z,0.50
2023-05-21T00:14:20.780Z,0.38
2023-05-21T00:16:48.955Z,0.40
2023-05-21T00:19:17.251Z,0.40
2023-05-21T00:21:46.033Z,0.45
2023-05-21T00:24:15.806Z,0.40
2023-05-21T00:26:43.853Z,0.40
2023-05-21T00:29:11.862Z,0.40
2023-05-21T00:31:39.958Z,0.40
2023-05-21T00:34:08.114Z,0.50
2023-05-21T00:36:36.080Z,0.40
2023-05-21T00:39:04.736Z,0.30
2023-05-21T00:41:35.434Z,0.30
2023-05-21T00:44:03.461Z,0.40
2023-05-21T00:46:31.573Z,0.40
2023-05-21T00:48:59.914Z,0.50
2023-05-21T00:51:30.627Z,0.30
2023-05-21T00:53:58.692Z,0.43
2023-05-21T00:56:27.966Z,0.35
2023-05-21T00:58:58.400Z,0.47
2023-05-21T01:01:26.812Z,0.40
2023-05-21T01:03:57.733Z,0.40
2023-05-21T01:06:25.871Z,0.40
2023-05-21T01:08:53.920Z,0.47
2023-05-21T01:11:22.122Z,0.35
2023-05-21T01:13:50.086Z,0.45
2023-05-21T01:16:19.565Z,0.30
2023-05-21T01:18:47.974Z,0.47
2023-05-21T01:21:17.485Z,0.55
2023-05-21T01:23:46.894Z,0.40
2023-05-21T01:26:15.993Z,0.43
2023-05-21T01:28:44.110Z,0.40
2023-05-21T01:31:26.076Z,0.50
2023-05-21T01:33:54.287Z,0.40
2023-05-21T01:36:24.401Z,0.40
2023-05-21T01:38:57.136Z,0.38
2023-05-21T01:41:25.124Z,0.32
2023-05-21T01:43:53.094Z,0.50
2023-05-21T01:46:23.118Z,0.40
2023-05-21T01:48:51.182Z,0.22
2023-05-21T01:51:19.152Z,0.38
2023-05-21T01:53:47.105Z,0.40
2023-05-21T01:56:16.571Z,0.40
2023-05-21T01:58:45.411Z,0.50
2023-05-21T02:01:13.487Z,0.40
2023-05-21T02:03:41.484Z,0.30
2023-05-21T02:06:09.570Z,0.47
2023-05-21T02:08:38.559Z,0.40
2023-05-21T02:11:06.636Z,0.30
2023-05-21T02:13:40.708Z,0.50
2023-05-21T02:16:13.111Z,0.40
2023-05-21T02:18:42.287Z,0.40
2023-05-21T02:21:10.712Z,0.45
2023-05-21T02:23:38.835Z,0.40
2023-05-21T02:26:06.823Z,0.40
2023-05-21T02:28:37.212Z,0.50
2023-05-21T02:31:05.191Z,0.43
2023-05-21T02:33:33.214Z,0.40
2023-05-21T02:36:01.163Z,0.45
2023-05-21T02:38:29.145Z,0.40
2023-05-21T02:40:57.179Z,0.50
2023-05-21T02:43:25.133Z,0.45
2023-05-21T02:45:54.514Z,0.38
2023-05-21T02:48:22.522Z,0.50
2023-05-21T02:50:50.539Z,0.40
2023-05-21T02:53:18.632Z,0.40
2023-05-21T02:55:46.627Z,0.50
2023-05-21T02:58:15.658Z,0.43
2023-05-21T03:00:43.596Z,0.35
2023-05-21T03:03:13.713Z,0.47
2023-05-21T03:05:41.746Z,0.50
2023-05-21T03:08:09.790Z,0.45
2023-05-21T03:10:37.808Z,0.50
2023-05-21T03:13:09.498Z,0.30
2023-05-21T03:15:39.464Z,0.50
2023-05-21T03:18:07.728Z,0.40
2023-05-21T03:20:43.672Z,0.50
2023-05-21T03:23:15.712Z,0.35
2023-05-21T03:25:46.134Z,0.40
2023-05-21T03:28:14.338Z,0.60
2023-05-21T03:30:46.455Z,0.38
2023-05-21T03:33:15.659Z,0.40
2023-05-21T03:35:45.126Z,0.45
2023-05-21T03:38:13.104Z,0.38
2023-05-21T03:40:41.123Z,0.50
2023-05-21T03:43:09.306Z,0.50
2023-05-21T03:45:37.513Z,0.38
2023-05-21T03:48:06.699Z,0.50
2023-05-21T03:50:35.927Z,0.40
2023-05-21T03:53:05.340Z,0.40
2023-05-21T03:55:33.390Z,0.40
2023-05-21T03:58:01.381Z,0.60
2023-05-21T04:00:29.444Z,0.45
2023-05-21T04:02:57.733Z,0.60
2023-05-21T04:05:25.848Z,0.50
2023-05-21T04:07:54.263Z,0.57
2023-05-21T04:10:41.706Z,0.50
2023-05-21T04:13:09.777Z,0.40
2023-05-21T04:15:38.847Z,0.60
2023-05-21T04:18:07.400Z,0.60
2023-05-21T04:20:35.458Z,0.43
2023-05-21T04:23:03.577Z,0.40
2023-05-21T04:25:32.935Z,0.50
2023-05-21T04:28:01.091Z,0.50
2023-05-21T04:30:29.047Z,0.35
2023-05-21T04:32:58.082Z,0.55
2023-05-21T04:35:26.168Z,0.40
2023-05-21T04:37:55.058Z,0.50
2023-05-21T04:40:24.618Z,0.43
2023-05-21T04:42:54.090Z,0.50
2023-05-21T04:45:24.747Z,0.40
2023-05-21T04:47:52.833Z,0.50
2023-05-21T04:50:21.537Z,0.47
2023-05-21T04:52:49.514Z,0.50
2023-05-21T04:55:19.138Z,0.50
2023-05-21T04:57:47.003Z,0.50
2023-05-21T05:00:17.785Z,0.60
2023-05-21T05:02:45.819Z,0.40
2023-05-21T05:05:13.869Z,0.50
2023-05-21T05:07:41.969Z,0.57
2023-05-21T05:10:10.165Z,0.40
2023-05-21T05:12:38.241Z,0.40
2023-05-21T05:15:06.934Z,0.50
2023-05-21T05:17:36.353Z,0.60
2023-05-21T05:20:05.169Z,0.50
2023-05-21T05:22:33.242Z,0.50
2023-05-21T05:25:01.315Z,0.70
2023-05-21T05:27:29.382Z,0.50
2023-05-21T05:29:57.311Z,0.50
2023-05-21T05:32:25.294Z,0.50
2023-05-21T05:34:54.603Z,0.50
2023-05-21T05:37:22.721Z,0.60
2023-05-21T05:39:50.706Z,0.68
2023-05-21T05:42:18.680Z,0.70
2023-05-21T05:44:46.658Z,0.60
2023-05-21T05:47:14.714Z,0.50
2023-05-21T05:49:42.804Z,0.60
2023-05-21T05:52:12.280Z,0.60
2023-05-21T05:54:40.317Z,0.50
2023-05-21T05:57:08.344Z,0.60
2023-05-21T05:59:36.413Z,0.50
2023-05-21T06:02:04.436Z,0.50
2023-05-21T06:04:32.467Z,0.50
2023-05-21T06:07:01.276Z,0.60
2023-05-21T06:09:30.807Z,0.60
2023-05-21T06:11:58.822Z,0.70
2023-05-21T06:14:26.850Z,0.60
2023-05-21T06:16:54.912Z,0.57
2023-05-21T06:19:22.989Z,0.50
2023-05-21T06:21:51.360Z,0.50
2023-05-21T06:24:19.304Z,0.45
2023-05-21T06:26:48.563Z,0.60
2023-05-21T06:29:17.104Z,0.55
2023-05-21T06:31:45.632Z,0.50
2023-05-21T06:34:13.694Z,0.50
2023-05-21T06:36:41.738Z,0.60
2023-05-21T06:39:10.350Z,0.50
2023-05-21T06:41:38.367Z,0.50
2023-05-21T06:44:07.751Z,0.70
2023-05-21T06:46:36.424Z,0.60
2023-05-21T06:49:07.006Z,0.50
2023-05-21T06:51:35.161Z,0.40
2023-05-21T06:54:03.123Z,0.50
2023-05-21T06:56:31.476Z,0.45
2023-05-21T06:58:59.430Z,0.60
2023-05-21T07:01:28.871Z,0.60
2023-05-21T07:03:57.361Z,0.65
2023-05-21T07:06:25.318Z,0.50
2023-05-21T07:08:53.388Z,0.57
2023-05-21T07:11:21.795Z,0.55
2023-05-21T07:13:49.758Z,0.60
2023-05-21T07:16:18.179Z,0.50
2023-05-21T07:18:47.592Z,0.57
2023-05-21T07:21:17.188Z,0.60
2023-05-21T07:23:45.107Z,0.55
2023-05-21T07:26:13.013Z,0.50
2023-05-21T07:28:42.856Z,0.55
2023-05-21T07:31:12.209Z,0.60
2023-05-21T07:33:41.018Z,0.50
2023-05-21T07:36:10.566Z,0.43
2023-05-21T07:38:40.400Z,0.50
2023-05-21T07:41:08.472Z,0.70
2023-05-21T07:43:37.006Z,0.52
2023-05-21T07:46:05.742Z,0.60
2023-05-21T07:48:35.456Z,0.57
2023-05-21T07:51:05.777Z,0.40
2023-05-21T07:53:35.057Z,0.70
2023-05-21T07:56:03.055Z,0.63
2023-05-21T07:58:31.884Z,0.60
2023-05-21T08:00:59.884Z,0.68
2023-05-21T08:03:29.134Z,0.68
2023-05-21T08:05:57.276Z,0.60
2023-05-21T08:08:25.339Z,0.70
2023-05-21T08:10:55.354Z,0.50
2023-05-21T08:13:23.335Z,0.50
2023-05-21T08:15:53.118Z,0.50
2023-05-21T08:18:24.005Z,0.65
2023-05-21T08:20:52.856Z,0.50
2023-05-21T08:23:20.870Z,0.60
2023-05-21T08:25:48.876Z,0.52
2023-05-21T08:28:18.924Z,0.40
2023-05-21T08:30:47.271Z,0.55
2023-05-21T08:33:17.985Z,0.40
2023-05-21T08:35:47.486Z,0.40
2023-05-21T08:38:17.647Z,0.52
2023-05-21T08:40:46.874Z,0.47
2023-05-21T08:43:16.535Z,0.60
2023-05-21T08:45:47.375Z,0.50
2023-05-21T08:48:16.115Z,0.50
2023-05-21T08:50:44.787Z,0.50
2023-05-21T08:53:24.145Z,0.50
2023-05-21T08:55:56.434Z,0.57
2023-05-21T08:58:24.381Z,0.68
2023-05-21T09:00:53.802Z,0.43
2023-05-21T09:03:23.078Z,0.60
2023-05-21T09:05:51.819Z,0.50
2023-05-21T09:08:21.794Z,0.43
2023-05-21T09:10:52.900Z,0.50
2023-05-21T09:13:21.906Z,0.70
2023-05-21T09:15:49.897Z,0.50
2023-05-21T09:18:20.032Z,0.50
2023-05-21T09:20:48.066Z,0.50
2023-05-21T09:23:18.200Z,0.60
2023-05-21T09:25:47.427Z,0.60
2023-05-21T09:28:15.857Z,0.40
2023-05-21T09:30:47.597Z,0.55
2023-05-21T09:33:26.958Z,0.47
2023-05-21T09:35:55.861Z,0.47
2023-05-21T09:38:23.876Z,0.50
2023-05-21T09:40:51.913Z,0.50
2023-05-21T09:43:20.652Z,0.60
2023-05-21T09:45:52.131Z,0.45
2023-05-21T09:48:36.553Z,0.50
2023-05-21T09:51:14.727Z,0.50
2023-05-21T09:53:50.561Z,0.40
2023-05-21T09:56:22.367Z,0.50
2023-05-21T09:58:51.278Z,0.50
2023-05-21T10:01:22.231Z,0.50
2023-05-21T10:03:55.596Z,0.55
2023-05-21T10:06:24.254Z,0.50
2023-05-21T10:08:53.749Z,0.50
2023-05-21T10:11:23.601Z,0.43
2023-05-21T10:13:54.460Z,0.50
2023-05-21T10:16:23.149Z,0.43
2023-05-21T10:18:54.323Z,0.57
2023-05-21T10:21:24.589Z,0.63
2023-05-21T10:23:52.574Z,0.60
2023-05-21T10:26:21.601Z,0.50
2023-05-21T10:28:50.773Z,0.40
2023-05-21T10:31:18.733Z,0.50
2023-05-21T10:33:47.320Z,0.52
2023-05-21T10:36:16.915Z,0.40
2023-05-21T10:38:44.849Z,0.50
2023-05-21T10:41:13.868Z,0.50
2023-05-21T10:43:50.606Z,0.50
2023-05-21T10:46:42.284Z,0.50
2023-05-21T10:49:22.705Z,0.50
2023-05-21T10:51:56.542Z,0.50
2023-05-21T10:54:47.370Z,0.47
2023-05-21T10:57:20.897Z,0.40
2023-05-21T10:59:48.823Z,0.50
2023-05-21T11:02:17.631Z,0.60
2023-05-21T11:04:46.111Z,0.38
2023-05-21T11:07:16.715Z,0.50
2023-05-21T11:09:48.014Z,0.43
2023-05-21T11:12:18.774Z,0.60
2023-05-21T11:14:57.555Z,0.55
2023-05-21T11:17:39.094Z,0.50
2023-05-21T11:20:10.622Z,0.40
2023-05-21T11:22:40.849Z,0.60
2023-05-21T11:25:09.745Z,0.50
2023-05-21T11:27:38.077Z,0.40
2023-05-21T11:30:08.960Z,0.40
2023-05-21T11:32:40.835Z,0.50
2023-05-21T11:35:10.158Z,0.50
2023-05-21T11:37:41.880Z,0.47
2023-05-21T11:40:32.069Z,0.55
2023-05-21T11:43:00.158Z,0.60
2023-05-21T11:45:33.986Z,0.40
2023-05-21T11:48:03.684Z,0.40
2023-05-21T11:50:34.376Z,0.60
2023-05-21T11:53:03.899Z,0.30
2023-05-21T11:55:33.134Z,0.55
2023-05-21T11:58:03.111Z,0.38
2023-05-21T12:00:31.228Z,0.52
2023-05-21T12:03:00.731Z,0.50
2023-05-21T12:05:28.771Z,0.40
2023-05-21T12:07:58.515Z,0.40
2023-05-21T12:10:28.784Z,0.43
2023-05-21T12:12:57.776Z,0.45
2023-05-21T12:15:28.198Z,0.45
2023-05-21T12:17:56.885Z,0.47
2023-05-21T12:20:27.827Z,0.57
2023-05-21T12:22:55.840Z,0.52
2023-05-21T12:25:23.880Z,0.40
2023-05-21T12:27:59.152Z,0.50
2023-05-21T12:30:27.253Z,0.45
2023-05-21T12:32:55.759Z,0.40
2023-05-21T12:35:24.197Z,0.40
2023-05-21T12:37:52.791Z,0.47
2023-05-21T12:40:21.535Z,0.47
2023-05-21T12:42:49.597Z,0.40
2023-05-21T12:45:21.828Z,0.50
2023-05-21T12:47:56.063Z,0.50
2023-05-21T12:52:56.032Z,0.47
2023-05-21T12:55:27.131Z,0.65
2023-05-21T12:58:05.176Z,0.40
2023-05-21T13:00:37.674Z,0.50
2023-05-21T13:03:06.752Z,0.50
2023-05-21T13:05:35.044Z,0.50
2023-05-21T13:08:06.088Z,0.40
2023-05-21T13:10:35.188Z,0.50
2023-05-21T13:13:06.220Z,0.45
2023-05-21T13:15:35.615Z,0.50
2023-05-21T13:18:04.132Z,0.60
2023-05-21T13:20:32.941Z,0.50
2023-05-21T13:25:31.085Z,0.50
2023-05-21T13:28:02.062Z,0.43
2023-05-21T13:30:30.130Z,0.50
2023-05-21T13:32:59.967Z,0.50
2023-05-21T13:35:28.167Z,0.50
2023-05-21T13:37:56.468Z,0.40
2023-05-21T13:40:24.579Z,0.50
2023-05-21T13:42:52.484Z,0.43
2023-05-21T13:45:21.955Z,0.55
2023-05-21T13:47:50.132Z,0.50
2023-05-21T13:50:20.328Z,0.40
2023-05-21T13:52:48.306Z,0.40
2023-05-21T13:55:16.873Z,0.50
2023-05-21T13:57:47.242Z,0.50
2023-05-21T14:00:16.136Z,0.57
2023-05-21T14:02:45.853Z,0.40
2023-05-21T14:05:14.096Z,0.50
2023-05-21T14:07:43.582Z,0.45
2023-05-21T14:10:12.928Z,0.38
2023-05-21T14:12:41.194Z,0.40
2023-05-21T14:15:10.593Z,0.22
2023-05-21T14:17:40.497Z,0.50
2023-05-21T14:20:10.062Z,0.40
2023-05-21T14:22:39.228Z,0.50
2023-05-21T14:25:09.192Z,0.40
2023-05-21T14:27:39.187Z,0.40
2023-05-21T14:30:08.442Z,0.52
2023-05-21T14:32:37.942Z,0.40
2023-05-21T14:35:07.680Z,0.43
2023-05-21T14:37:35.761Z,0.40
2023-05-21T14:40:06.356Z,0.40
2023-05-21T14:42:36.025Z,0.40
2023-05-21T14:45:17.484Z,0.47
2023-05-21T14:47:48.353Z,0.30
2023-05-21T14:50:17.562Z,0.40
2023-05-21T14:52:46.391Z,0.30
2023-05-21T14:55:16.576Z,0.40
2023-05-21T14:57:47.270Z,0.40
2023-05-21T15:00:15.678Z,0.40
2023-05-21T15:02:43.875Z,0.40
2023-05-21T15:05:12.747Z,0.40
2023-05-21T15:07:40.800Z,0.30
2023-05-21T15:10:10.918Z,0.40
2023-05-21T15:12:39.696Z,0.40
2023-05-21T15:15:10.004Z,0.45
2023-05-21T15:17:38.763Z,0.40
2023-05-21T15:20:07.913Z,0.50
2023-05-21T15:22:36.605Z,0.40
2023-05-21T15:25:05.407Z,0.40
2023-05-21T15:27:33.399Z,0.40
2023-05-21T15:30:02.268Z,0.40
2023-05-21T15:32:31.794Z,0.40
2023-05-21T15:35:01.387Z,0.40
2023-05-21T15:37:32.209Z,0.40
2023-05-21T15:40:00.396Z,0.52
2023-05-21T15:42:32.079Z,0.40
2023-05-21T15:45:00.148Z,0.40
2023-05-21T15:47:28.986Z,0.40
2023-05-21T15:49:58.989Z,0.32
2023-05-21T15:52:27.016Z,0.30
2023-05-21T15:54:55.693Z,0.35
2023-05-21T15:57:23.917Z,0.50
2023-05-21T15:59:54.831Z,0.55
2023-05-21T16:02:22.835Z,0.40
2023-05-21T16:04:52.192Z,0.60
2023-05-21T16:07:22.436Z,0.40
2023-05-21T16:09:54.769Z,0.32
2023-05-21T16:12:24.837Z,0.40
2023-05-21T16:14:53.001Z,0.43
2023-05-21T16:17:21.179Z,0.40
2023-05-21T16:19:49.930Z,0.40
2023-05-21T16:22:20.251Z,0.30
2023-05-21T16:24:50.581Z,0.32
2023-05-21T16:27:18.572Z,0.40
2023-05-21T16:29:46.533Z,0.50
2023-05-21T16:32:16.139Z,0.38
2023-05-21T16:34:44.369Z,0.40
2023-05-21T16:37:13.146Z,0.40
2023-05-21T16:39:41.326Z,0.50
2023-05-21T16:42:10.735Z,0.40
2023-05-21T16:44:40.163Z,0.50
2023-05-21T16:47:08.215Z,0.40
2023-05-21T16:49:37.012Z,0.50
2023-05-21T16:52:05.414Z,0.40
2023-05-21T16:54:34.120Z,0.43
2023-05-21T16:57:02.988Z,0.40
2023-05-21T16:59:32.341Z,0.30
2023-05-21T17:02:02.587Z,0.40
2023-05-21T17:04:30.807Z,0.40
2023-05-21T17:06:59.606Z,0.50
2023-05-21T17:09:29.744Z,0.30
2023-05-21T17:11:57.736Z,0.43
2023-05-21T17:14:34.432Z,0.40
2023-05-21T17:17:04.454Z,0.43
2023-05-21T17:19:33.344Z,0.38
2023-05-21T17:22:01.462Z,0.30
2023-05-21T17:24:29.549Z,0.40
2023-05-21T17:26:58.314Z,0.40
2023-05-21T17:29:26.444Z,0.40
2023-05-21T17:31:55.473Z,0.40
2023-05-21T17:34:29.383Z,0.30
2023-05-21T17:36:58.537Z,0.40
2023-05-21T17:39:26.730Z,0.30
2023-05-21T17:41:54.749Z,0.47
2023-05-21T17:44:24.437Z,0.40
2023-05-21T17:46:52.717Z,0.40
2023-05-21T17:49:20.827Z,0.38
2023-05-21T17:51:51.437Z,0.40
2023-05-21T17:54:21.273Z,0.40
2023-05-21T17:56:50.102Z,0.20
2023-05-21T17:59:18.078Z,0.40
2023-05-21T18:01:46.145Z,0.40
2023-05-21T18:04:15.823Z,0.30
2023-05-21T18:06:44.248Z,0.40
2023-05-21T18:09:21.620Z,0.40
2023-05-21T18:11:50.554Z,0.40
2023-05-21T18:14:18.512Z,0.40
2023-05-21T18:16:47.484Z,0.22
2023-05-21T18:19:15.606Z,0.35
2023-05-21T18:21:44.451Z,0.40
2023-05-21T18:24:13.830Z,0.35
2023-05-21T18:26:46.340Z,0.30
2023-05-21T18:29:15.115Z,0.40
2023-05-21T18:31:44.561Z,0.30
2023-05-21T18:34:14.812Z,0.32
2023-05-21T18:36:42.931Z,0.43
2023-05-21T18:39:12.292Z,0.30
2023-05-21T18:41:41.923Z,0.30
2023-05-21T18:44:10.085Z,0.40
2023-05-21T18:46:39.464Z,0.40
2023-05-21T18:49:07.675Z,0.30
2023-05-21T18:51:37.814Z,0.40
2023-05-21T18:54:06.011Z,0.38
2023-05-21T18:56:35.155Z,0.38
2023-05-21T18:59:04.509Z,0.38
2023-05-21T19:01:32.930Z,0.40
2023-05-21T19:04:01.830Z,0.28
2023-05-21T19:06:30.294Z,0.30
2023-05-21T19:08:59.171Z,0.25
2023-05-21T19:11:31.069Z,0.40
2023-05-21T19:14:10.884Z,0.38
2023-05-21T19:16:40.395Z,0.30
2023-05-21T19:19:10.989Z,0.20
2023-05-21T19:21:39.100Z,0.30
2023-05-21T19:24:08.179Z,0.40
2023-05-21T19:26:37.147Z,0.32
2023-05-21T19:29:05.175Z,0.30
2023-05-21T19:31:35.557Z,0.30
2023-05-21T19:34:04.518Z,0.38
2023-05-21T19:36:44.450Z,0.30
2023-05-21T19:39:22.722Z,0.30
2023-05-21T19:41:51.741Z,0.30
2023-05-21T19:44:22.702Z,0.38
2023-05-21T19:46:52.186Z,0.40
2023-05-21T19:49:21.426Z,0.30
2023-05-21T19:51:49.740Z,0.20
2023-05-21T19:54:18.570Z,0.30
2023-05-21T19:56:47.766Z,0.30
2023-05-21T19:59:15.932Z,0.32
2023-05-21T20:01:47.874Z,0.30
2023-05-21T20:04:17.617Z,0.30
2023-05-21T20:06:45.562Z,0.20
2023-05-21T20:09:16.820Z,0.30
2023-05-21T20:11:50.865Z,0.40
2023-05-21T20:14:20.856Z,0.30
2023-05-21T20:16:49.576Z,0.40
2023-05-21T20:19:20.620Z,0.20
2023-05-21T20:21:49.618Z,0.20
2023-05-21T20:24:17.604Z,0.30
2023-05-21T20:26:50.862Z,0.38
2023-05-21T20:29:18.817Z,0.30
2023-05-21T20:31:47.133Z,0.30
2023-05-21T20:34:20.678Z,0.38
2023-05-21T20:36:50.056Z,0.35
2023-05-21T20:39:19.990Z,0.30
2023-05-21T20:41:48.406Z,0.30
2023-05-21T20:44:16.812Z,0.40
2023-05-21T20:46:46.441Z,0.20
2023-05-21T20:49:15.221Z,0.20
2023-05-21T20:51:44.211Z,0.30
2023-05-21T20:54:14.151Z,0.20
2023-05-21T20:56:46.800Z,0.20
2023-05-21T20:59:14.914Z,0.28
2023-05-21T21:01:42.986Z,0.30
2023-05-21T21:04:12.390Z,0.30
2023-05-21T21:06:40.926Z,0.30
2023-05-21T21:09:10.643Z,0.20
2023-05-21T21:11:40.909Z,0.10
2023-05-21T21:14:10.717Z,0.20
2023-05-21T21:16:38.987Z,0.20
2023-05-21T21:19:07.099Z,0.20
2023-05-21T21:21:36.009Z,0.20
2023-05-21T21:24:03.983Z,0.30
2023-05-21T21:26:32.843Z,0.30
2023-05-21T21:29:02.176Z,0.30
2023-05-21T21:31:30.601Z,0.20
2023-05-21T21:33:59.726Z,0.25
2023-05-21T21:36:28.972Z,0.20
2023-05-21T21:38:57.838Z,0.32
2023-05-21T21:41:25.981Z,0.30
2023-05-21T21:43:54.062Z,0.30
2023-05-21T21:46:24.310Z,0.20
2023-05-21T21:48:52.577Z,0.35
2023-05-21T21:51:23.538Z,0.30
2023-05-21T21:53:51.746Z,0.30
2023-05-21T21:56:19.693Z,0.30
2023-05-21T21:58:48.543Z,0.20
2023-05-21T22:01:16.647Z,0.20
2023-05-21T22:03:47.274Z,0.30
2023-05-21T22:06:15.359Z,0.38
2023-05-21T22:08:43.470Z,0.22
2023-05-21T22:11:12.323Z,0.20
2023-05-21T22:13:41.661Z,0.30
2023-05-21T22:16:12.632Z,0.20
2023-05-21T22:18:42.179Z,0.20
2023-05-21T22:21:18.638Z,0.20
2023-05-21T22:23:46.713Z,0.20
2023-05-21T22:26:14.995Z,0.20
2023-05-21T22:28:43.130Z,0.15
2023-05-21T22:31:11.312Z,0.30
2023-05-21T22:33:39.413Z,0.20
2023-05-21T22:36:07.905Z,0.10
2023-05-21T22:38:37.775Z,0.20
2023-05-21T22:41:05.984Z,0.20
2023-05-21T22:43:34.564Z,0.10
2023-05-21T22:46:03.116Z,0.20
2023-05-21T22:48:31.636Z,0.20
2023-05-21T22:50:59.647Z,0.17
2023-05-21T22:53:27.739Z,0.10
2023-05-21T22:55:57.110Z,0.30
2023-05-21T22:58:25.222Z,0.20
2023-05-21T23:00:53.293Z,0.20
2023-05-21T23:03:21.369Z,0.20
2023-05-21T23:05:49.487Z,0.30
2023-05-21T23:08:17.689Z,0.30
2023-05-21T23:10:46.116Z,0.30
2023-05-21T23:13:15.582Z,0.20
2023-05-21T23:15:43.958Z,0.30
2023-05-21T23:18:12.630Z,0.28
2023-05-21T23:20:41.928Z,0.20
2023-05-21T23:23:11.267Z,0.20
2023-05-21T23:25:39.451Z,0.28
2023-05-21T23:28:07.534Z,0.15
2023-05-21T23:30:37.025Z,0.30
2023-05-21T23:33:05.211Z,0.10
2023-05-21T23:35:33.777Z,0.20
2023-05-21T23:38:01.778Z,0.20
2023-05-21T23:40:29.703Z,0.30
2023-05-21T23:42:57.743Z,0.20
2023-05-21T23:45:25.977Z,0.20
2023-05-21T23:47:55.397Z,0.20
2023-05-21T23:50:25.043Z,0.20
2023-05-21T23:52:53.119Z,0.20
2023-05-21T23:55:21.249Z,0.20
2023-05-21T23:57:49.219Z,0.10
